sensor_id;sensor_type;location;lat;lon;timestamp;temperature;humidity
28524;DHT22;15734;50.904;6.922;2023-06-24T00:02:01;17.00;99.90
28524;DHT22;15734;50.904;6.922;2023-06-24T00:04:27;17.00;99.90
28524;DHT22;15734;50.904;6.922;2023-06-24T00:06:52;17.00;99.90
28524;DHT22;15734;50.904;6.922;2023-06-24T00:09:18;17.00;99.90
28524;DHT22;15734;50.904;6.922;2023-06-24T00:11:43;16.90;99.90
28524;DHT22;15734;50.904;6.922;2023-06-24T00:14:09;16.80;99.90
28524;DHT22;15734;50.904;6.922;2023-06-24T00:16:36;16.80;99.90
28524;DHT22;15734;50.904;6.922;2023-06-24T00:19:02;16.80;99.90
28524;DHT22;15734;50.904;6.922;2023-06-24T00:21:28;16.70;99.90
28524;DHT22;15734;50.904;6.922;2023-06-24T00:24:00;16.70;99.90
28524;DHT22;15734;50.904;6.922;2023-06-24T00:26:31;16.60;99.90
28524;DHT22;15734;50.904;6.922;2023-06-24T00:28:58;16.60;99.90
28524;DHT22;15734;50.904;6.922;2023-06-24T00:31:23;16.60;99.90
28524;DHT22;15734;50.904;6.922;2023-06-24T00:33:49;16.60;99.90
28524;DHT22;15734;50.904;6.922;2023-06-24T00:36:15;16.50;99.90
28524;DHT22;15734;50.904;6.922;2023-06-24T00:38:40;16.50;99.90
28524;DHT22;15734;50.904;6.922;2023-06-24T00:41:07;16.50;99.90
28524;DHT22;15734;50.904;6.922;2023-06-24T00:43:33;16.50;99.90
28524;DHT22;15734;50.904;6.922;2023-06-24T00:45:59;16.50;99.90
28524;DHT22;15734;50.904;6.922;2023-06-24T00:48:24;16.40;99.90
28524;DHT22;15734;50.904;6.922;2023-06-24T00:50:51;16.40;99.90
28524;DHT22;15734;50.904;6.922;2023-06-24T00:53:17;16.30;99.90
28524;DHT22;15734;50.904;6.922;2023-06-24T00:55:43;16.30;99.90
28524;DHT22;15734;50.904;6.922;2023-06-24T00:58:11;16.30;99.90
28524;DHT22;15734;50.904;6.922;2023-06-24T01:00:44;16.30;99.90
28524;DHT22;15734;50.904;6.922;2023-06-24T01:03:11;16.30;99.90
28524;DHT22;15734;50.904;6.922;2023-06-24T01:05:42;16.30;99.90
28524;DHT22;15734;50.904;6.922;2023-06-24T01:08:08;16.30;99.90
28524;DHT22;15734;50.904;6.922;2023-06-24T01:10:35;16.30;99.90
28524;DHT22;15734;50.904;6.922;2023-06-24T01:13:00;16.20;99.90
28524;DHT22;15734;50.904;6.922;2023-06-24T01:15:26;16.20;99.90
28524;DHT22;15734;50.904;6.922;2023-06-24T01:18:10;16.10;99.90
28524;DHT22;15734;50.904;6.922;2023-06-24T01:20:54;16.20;99.90
28524;DHT22;15734;50.904;6.922;2023-06-24T01:31:43;16.30;99.90
28524;DHT22;15734;50.904;6.922;2023-06-24T01:34:34;16.30;99.90
28524;DHT22;15734;50.904;6.922;2023-06-24T01:39:49;16.20;99.90
28524;DHT22;15734;50.904;6.922;2023-06-24T01:42:17;16.20;99.90
28524;DHT22;15734;50.904;6.922;2023-06-24T01:44:45;16.10;99.90
28524;DHT22;15734;50.904;6.922;2023-06-24T01:47:16;16.10;99.90
28524;DHT22;15734;50.904;6.922;2023-06-24T01:49:44;16.00;99.90
28524;DHT22;15734;50.904;6.922;2023-06-24T01:52:10;16.10;99.90
28524;DHT22;15734;50.904;6.922;2023-06-24T01:54:39;16.10;99.90
28524;DHT22;15734;50.904;6.922;2023-06-24T01:57:06;16.10;99.90
28524;DHT22;15734;50.904;6.922;2023-06-24T01:59:32;16.10;99.90
28524;DHT22;15734;50.904;6.922;2023-06-24T02:01:59;16.10;99.90
28524;DHT22;15734;50.904;6.922;2023-06-24T02:04:27;16.10;99.90
28524;DHT22;15734;50.904;6.922;2023-06-24T02:07:00;16.00;99.90
28524;DHT22;15734;50.904;6.922;2023-06-24T02:09:28;16.10;99.90
28524;DHT22;15734;50.904;6.922;2023-06-24T02:11:57;16.10;99.90
28524;DHT22;15734;50.904;6.922;2023-06-24T02:14:24;16.10;99.90
28524;DHT22;15734;50.904;6.922;2023-06-24T02:16:51;16.10;99.90
28524;DHT22;15734;50.904;6.922;2023-06-24T02:19:23;16.10;99.90
28524;DHT22;15734;50.904;6.922;2023-06-24T02:21:50;16.10;99.90
28524;DHT22;15734;50.904;6.922;2023-06-24T02:24:18;16.10;99.90
28524;DHT22;15734;50.904;6.922;2023-06-24T02:26:44;16.10;99.90
28524;DHT22;15734;50.904;6.922;2023-06-24T02:29:10;16.10;99.90
28524;DHT22;15734;50.904;6.922;2023-06-24T02:31:37;16.00;99.90
28524;DHT22;15734;50.904;6.922;2023-06-24T02:34:03;16.00;99.90
28524;DHT22;15734;50.904;6.922;2023-06-24T02:36:29;16.00;99.90
28524;DHT22;15734;50.904;6.922;2023-06-24T02:38:54;16.00;99.90
28524;DHT22;15734;50.904;6.922;2023-06-24T02:41:20;16.00;99.90
28524;DHT22;15734;50.904;6.922;2023-06-24T02:43:45;16.00;99.90
28524;DHT22;15734;50.904;6.922;2023-06-24T02:46:11;15.90;99.90
28524;DHT22;15734;50.904;6.922;2023-06-24T02:48:37;15.90;99.90
28524;DHT22;15734;50.904;6.922;2023-06-24T02:51:04;16.00;99.90
28524;DHT22;15734;50.904;6.922;2023-06-24T02:53:31;15.90;99.90
28524;DHT22;15734;50.904;6.922;2023-06-24T02:55:58;15.90;99.90
28524;DHT22;15734;50.904;6.922;2023-06-24T02:58:24;15.90;99.90
28524;DHT22;15734;50.904;6.922;2023-06-24T03:00:59;15.90;99.90
28524;DHT22;15734;50.904;6.922;2023-06-24T03:03:26;15.90;99.90
28524;DHT22;15734;50.904;6.922;2023-06-24T03:05:53;15.90;99.90
28524;DHT22;15734;50.904;6.922;2023-06-24T03:08:19;15.90;99.90
28524;DHT22;15734;50.904;6.922;2023-06-24T03:10:45;15.90;99.90
28524;DHT22;15734;50.904;6.922;2023-06-24T03:13:11;15.90;99.90
28524;DHT22;15734;50.904;6.922;2023-06-24T03:15:36;15.90;99.90
28524;DHT22;15734;50.904;6.922;2023-06-24T03:18:02;15.80;99.90
28524;DHT22;15734;50.904;6.922;2023-06-24T03:20:28;15.80;99.90
28524;DHT22;15734;50.904;6.922;2023-06-24T03:22:53;15.70;99.90
28524;DHT22;15734;50.904;6.922;2023-06-24T03:25:21;15.70;99.90
28524;DHT22;15734;50.904;6.922;2023-06-24T03:27:46;15.70;99.90
28524;DHT22;15734;50.904;6.922;2023-06-24T03:30:12;15.70;99.90
28524;DHT22;15734;50.904;6.922;2023-06-24T03:32:40;15.60;99.90
28524;DHT22;15734;50.904;6.922;2023-06-24T03:35:05;15.60;99.90
28524;DHT22;15734;50.904;6.922;2023-06-24T03:37:32;15.70;99.90
28524;DHT22;15734;50.904;6.922;2023-06-24T03:39:57;15.80;99.90
28524;DHT22;15734;50.904;6.922;2023-06-24T03:42:23;15.70;99.90
28524;DHT22;15734;50.904;6.922;2023-06-24T03:44:49;15.70;99.90
28524;DHT22;15734;50.904;6.922;2023-06-24T03:47:14;15.70;99.90
28524;DHT22;15734;50.904;6.922;2023-06-24T03:49:41;15.70;99.90
28524;DHT22;15734;50.904;6.922;2023-06-24T03:52:06;15.70;99.90
28524;DHT22;15734;50.904;6.922;2023-06-24T03:54:34;15.70;99.90
28524;DHT22;15734;50.904;6.922;2023-06-24T03:56:59;15.70;99.90
28524;DHT22;15734;50.904;6.922;2023-06-24T03:59:25;15.80;99.90
28524;DHT22;15734;50.904;6.922;2023-06-24T04:01:50;15.80;99.90
28524;DHT22;15734;50.904;6.922;2023-06-24T04:04:16;15.80;99.90
28524;DHT22;15734;50.904;6.922;2023-06-24T04:06:42;15.80;99.90
28524;DHT22;15734;50.904;6.922;2023-06-24T04:09:07;15.90;99.90
28524;DHT22;15734;50.904;6.922;2023-06-24T04:11:35;15.90;99.90
28524;DHT22;15734;50.904;6.922;2023-06-24T04:14:01;15.90;99.90
28524;DHT22;15734;50.904;6.922;2023-06-24T04:16:27;16.00;99.90
28524;DHT22;15734;50.904;6.922;2023-06-24T04:18:52;16.00;99.90
28524;DHT22;15734;50.904;6.922;2023-06-24T04:21:18;16.00;99.90
28524;DHT22;15734;50.904;6.922;2023-06-24T04:23:44;16.10;99.90
28524;DHT22;15734;50.904;6.922;2023-06-24T04:26:09;16.10;99.90
28524;DHT22;15734;50.904;6.922;2023-06-24T04:28:35;16.10;99.90
28524;DHT22;15734;50.904;6.922;2023-06-24T04:31:00;16.10;99.90
28524;DHT22;15734;50.904;6.922;2023-06-24T04:33:26;16.20;99.90
28524;DHT22;15734;50.904;6.922;2023-06-24T04:35:51;16.30;99.90
28524;DHT22;15734;50.904;6.922;2023-06-24T04:38:17;16.30;99.90
28524;DHT22;15734;50.904;6.922;2023-06-24T04:40:44;16.40;99.90
28524;DHT22;15734;50.904;6.922;2023-06-24T04:43:10;16.40;99.90
28524;DHT22;15734;50.904;6.922;2023-06-24T04:45:35;16.50;99.90
28524;DHT22;15734;50.904;6.922;2023-06-24T04:48:01;16.50;99.90
28524;DHT22;15734;50.904;6.922;2023-06-24T04:50:27;16.60;99.90
28524;DHT22;15734;50.904;6.922;2023-06-24T04:52:53;16.60;99.90
28524;DHT22;15734;50.904;6.922;2023-06-24T04:55:21;16.60;99.90
28524;DHT22;15734;50.904;6.922;2023-06-24T04:57:47;16.60;99.90
28524;DHT22;15734;50.904;6.922;2023-06-24T05:00:12;16.70;99.90
28524;DHT22;15734;50.904;6.922;2023-06-24T05:02:38;16.70;99.90
28524;DHT22;15734;50.904;6.922;2023-06-24T05:05:04;16.80;99.90
28524;DHT22;15734;50.904;6.922;2023-06-24T05:07:29;16.80;99.90
28524;DHT22;15734;50.904;6.922;2023-06-24T05:09:55;16.80;99.90
28524;DHT22;15734;50.904;6.922;2023-06-24T05:12:20;16.90;99.90
28524;DHT22;15734;50.904;6.922;2023-06-24T05:14:50;16.90;99.90
28524;DHT22;15734;50.904;6.922;2023-06-24T05:17:16;17.00;99.90
28524;DHT22;15734;50.904;6.922;2023-06-24T05:19:42;17.00;99.90
28524;DHT22;15734;50.904;6.922;2023-06-24T05:22:09;17.10;99.90
28524;DHT22;15734;50.904;6.922;2023-06-24T05:24:34;17.20;99.90
28524;DHT22;15734;50.904;6.922;2023-06-24T05:27:04;17.20;99.90
28524;DHT22;15734;50.904;6.922;2023-06-24T05:29:31;17.30;99.90
28524;DHT22;15734;50.904;6.922;2023-06-24T05:31:56;17.30;99.90
28524;DHT22;15734;50.904;6.922;2023-06-24T05:34:22;17.40;99.90
28524;DHT22;15734;50.904;6.922;2023-06-24T05:36:47;17.40;99.90
28524;DHT22;15734;50.904;6.922;2023-06-24T05:39:13;17.40;99.90
28524;DHT22;15734;50.904;6.922;2023-06-24T05:41:39;17.50;99.90
28524;DHT22;15734;50.904;6.922;2023-06-24T05:44:06;17.60;99.90
28524;DHT22;15734;50.904;6.922;2023-06-24T05:46:32;17.60;99.90
28524;DHT22;15734;50.904;6.922;2023-06-24T05:48:58;17.70;99.90
28524;DHT22;15734;50.904;6.922;2023-06-24T05:51:24;17.80;99.90
28524;DHT22;15734;50.904;6.922;2023-06-24T05:53:49;17.90;99.90
28524;DHT22;15734;50.904;6.922;2023-06-24T05:56:15;18.00;99.90
28524;DHT22;15734;50.904;6.922;2023-06-24T05:58:40;18.10;99.90
28524;DHT22;15734;50.904;6.922;2023-06-24T06:01:07;18.10;99.90
28524;DHT22;15734;50.904;6.922;2023-06-24T06:03:32;18.20;99.90
28524;DHT22;15734;50.904;6.922;2023-06-24T06:05:58;18.30;99.90
28524;DHT22;15734;50.904;6.922;2023-06-24T06:08:24;18.40;99.90
28524;DHT22;15734;50.904;6.922;2023-06-24T06:10:49;18.50;99.90
28524;DHT22;15734;50.904;6.922;2023-06-24T06:13:15;18.60;99.90
28524;DHT22;15734;50.904;6.922;2023-06-24T06:15:40;18.70;99.90
28524;DHT22;15734;50.904;6.922;2023-06-24T06:18:06;18.80;99.90
28524;DHT22;15734;50.904;6.922;2023-06-24T06:20:31;18.90;99.90
28524;DHT22;15734;50.904;6.922;2023-06-24T06:22:57;19.10;99.90
28524;DHT22;15734;50.904;6.922;2023-06-24T06:25:23;19.30;99.90
28524;DHT22;15734;50.904;6.922;2023-06-24T06:27:49;19.40;99.90
28524;DHT22;15734;50.904;6.922;2023-06-24T06:30:15;19.40;99.90
28524;DHT22;15734;50.904;6.922;2023-06-24T06:32:40;19.60;99.90
28524;DHT22;15734;50.904;6.922;2023-06-24T06:35:07;19.70;99.90
28524;DHT22;15734;50.904;6.922;2023-06-24T06:37:33;19.70;99.90
28524;DHT22;15734;50.904;6.922;2023-06-24T06:39:59;19.70;99.90
28524;DHT22;15734;50.904;6.922;2023-06-24T06:42:24;19.80;99.90
28524;DHT22;15734;50.904;6.922;2023-06-24T06:44:50;19.90;99.90
28524;DHT22;15734;50.904;6.922;2023-06-24T06:47:15;20.00;99.90
28524;DHT22;15734;50.904;6.922;2023-06-24T06:49:41;20.00;99.90
28524;DHT22;15734;50.904;6.922;2023-06-24T06:52:07;20.10;99.90
28524;DHT22;15734;50.904;6.922;2023-06-24T06:54:32;20.20;99.90
28524;DHT22;15734;50.904;6.922;2023-06-24T06:57:02;20.20;99.90
28524;DHT22;15734;50.904;6.922;2023-06-24T06:59:29;20.30;99.90
28524;DHT22;15734;50.904;6.922;2023-06-24T07:01:55;20.30;99.90
28524;DHT22;15734;50.904;6.922;2023-06-24T07:04:20;20.50;99.90
28524;DHT22;15734;50.904;6.922;2023-06-24T07:06:46;20.50;99.90
28524;DHT22;15734;50.904;6.922;2023-06-24T07:09:11;20.50;99.90
28524;DHT22;15734;50.904;6.922;2023-06-24T07:11:37;20.50;99.90
28524;DHT22;15734;50.904;6.922;2023-06-24T07:14:02;20.60;99.90
28524;DHT22;15734;50.904;6.922;2023-06-24T07:16:28;20.60;99.90
28524;DHT22;15734;50.904;6.922;2023-06-24T07:18:53;20.60;99.90
28524;DHT22;15734;50.904;6.922;2023-06-24T07:21:19;20.70;99.90
28524;DHT22;15734;50.904;6.922;2023-06-24T07:23:45;20.70;99.90
28524;DHT22;15734;50.904;6.922;2023-06-24T07:26:11;20.70;99.90
28524;DHT22;15734;50.904;6.922;2023-06-24T07:28:36;20.80;99.90
28524;DHT22;15734;50.904;6.922;2023-06-24T07:31:02;20.80;99.90
28524;DHT22;15734;50.904;6.922;2023-06-24T07:33:27;20.90;99.90
28524;DHT22;15734;50.904;6.922;2023-06-24T07:35:56;21.00;99.90
28524;DHT22;15734;50.904;6.922;2023-06-24T07:38:21;21.10;99.90
28524;DHT22;15734;50.904;6.922;2023-06-24T07:40:47;21.20;99.90
28524;DHT22;15734;50.904;6.922;2023-06-24T07:43:12;21.30;99.90
28524;DHT22;15734;50.904;6.922;2023-06-24T07:45:38;21.30;99.90
28524;DHT22;15734;50.904;6.922;2023-06-24T07:48:03;21.40;99.90
28524;DHT22;15734;50.904;6.922;2023-06-24T07:50:30;21.50;99.90
28524;DHT22;15734;50.904;6.922;2023-06-24T07:52:56;21.60;99.90
28524;DHT22;15734;50.904;6.922;2023-06-24T07:55:22;21.70;99.90
28524;DHT22;15734;50.904;6.922;2023-06-24T07:57:48;21.70;99.90
28524;DHT22;15734;50.904;6.922;2023-06-24T08:00:14;21.70;99.90
28524;DHT22;15734;50.904;6.922;2023-06-24T08:02:41;21.80;99.90
28524;DHT22;15734;50.904;6.922;2023-06-24T08:05:07;21.80;99.90
28524;DHT22;15734;50.904;6.922;2023-06-24T08:07:34;21.90;99.90
28524;DHT22;15734;50.904;6.922;2023-06-24T08:10:00;21.90;99.90
28524;DHT22;15734;50.904;6.922;2023-06-24T08:12:26;22.00;99.90
28524;DHT22;15734;50.904;6.922;2023-06-24T08:14:51;22.10;99.90
28524;DHT22;15734;50.904;6.922;2023-06-24T08:17:17;22.30;99.90
28524;DHT22;15734;50.904;6.922;2023-06-24T08:19:42;22.30;99.90
28524;DHT22;15734;50.904;6.922;2023-06-24T08:22:08;22.40;99.90
28524;DHT22;15734;50.904;6.922;2023-06-24T08:24:33;22.40;99.90
28524;DHT22;15734;50.904;6.922;2023-06-24T08:26:59;22.40;99.90
28524;DHT22;15734;50.904;6.922;2023-06-24T08:29:24;22.50;99.90
28524;DHT22;15734;50.904;6.922;2023-06-24T08:31:50;22.60;99.90
28524;DHT22;15734;50.904;6.922;2023-06-24T08:34:15;22.80;99.90
28524;DHT22;15734;50.904;6.922;2023-06-24T08:36:41;22.90;99.90
28524;DHT22;15734;50.904;6.922;2023-06-24T08:39:07;23.00;99.90
28524;DHT22;15734;50.904;6.922;2023-06-24T08:41:33;23.10;99.90
28524;DHT22;15734;50.904;6.922;2023-06-24T08:43:59;23.10;99.90
28524;DHT22;15734;50.904;6.922;2023-06-24T08:46:25;23.10;99.90
28524;DHT22;15734;50.904;6.922;2023-06-24T08:49:02;23.10;99.90
28524;DHT22;15734;50.904;6.922;2023-06-24T08:51:30;23.20;99.90
28524;DHT22;15734;50.904;6.922;2023-06-24T08:53:57;23.20;99.90
28524;DHT22;15734;50.904;6.922;2023-06-24T08:56:23;23.20;99.90
28524;DHT22;15734;50.904;6.922;2023-06-24T08:58:50;23.40;99.90
28524;DHT22;15734;50.904;6.922;2023-06-24T09:01:16;23.50;99.90
28524;DHT22;15734;50.904;6.922;2023-06-24T09:03:42;23.50;99.90
28524;DHT22;15734;50.904;6.922;2023-06-24T09:06:08;23.60;99.90
28524;DHT22;15734;50.904;6.922;2023-06-24T09:08:33;23.60;99.90
28524;DHT22;15734;50.904;6.922;2023-06-24T09:11:01;23.50;99.90
28524;DHT22;15734;50.904;6.922;2023-06-24T09:13:35;23.50;99.90
28524;DHT22;15734;50.904;6.922;2023-06-24T09:16:11;23.60;99.90
28524;DHT22;15734;50.904;6.922;2023-06-24T09:18:38;23.80;99.90
28524;DHT22;15734;50.904;6.922;2023-06-24T09:21:03;23.90;99.90
28524;DHT22;15734;50.904;6.922;2023-06-24T09:23:29;24.00;99.90
28524;DHT22;15734;50.904;6.922;2023-06-24T09:25:57;24.20;99.90
28524;DHT22;15734;50.904;6.922;2023-06-24T09:28:28;24.20;99.90
28524;DHT22;15734;50.904;6.922;2023-06-24T09:31:10;24.20;99.90
28524;DHT22;15734;50.904;6.922;2023-06-24T09:33:36;24.20;99.90
28524;DHT22;15734;50.904;6.922;2023-06-24T09:36:04;24.20;99.90
28524;DHT22;15734;50.904;6.922;2023-06-24T09:38:37;24.40;99.90
28524;DHT22;15734;50.904;6.922;2023-06-24T09:41:04;24.50;99.90
28524;DHT22;15734;50.904;6.922;2023-06-24T09:43:33;24.70;99.90
28524;DHT22;15734;50.904;6.922;2023-06-24T09:46:01;24.80;99.90
28524;DHT22;15734;50.904;6.922;2023-06-24T09:48:27;24.80;99.90
28524;DHT22;15734;50.904;6.922;2023-06-24T09:50:54;24.80;99.90
28524;DHT22;15734;50.904;6.922;2023-06-24T09:53:20;25.00;99.90
28524;DHT22;15734;50.904;6.922;2023-06-24T09:55:46;25.10;99.90
28524;DHT22;15734;50.904;6.922;2023-06-24T09:58:13;25.20;99.90
28524;DHT22;15734;50.904;6.922;2023-06-24T10:00:41;25.30;99.90
28524;DHT22;15734;50.904;6.922;2023-06-24T10:03:06;25.40;99.90
28524;DHT22;15734;50.904;6.922;2023-06-24T10:05:32;25.50;99.90
28524;DHT22;15734;50.904;6.922;2023-06-24T10:07:58;25.60;99.90
28524;DHT22;15734;50.904;6.922;2023-06-24T10:10:23;25.70;99.90
28524;DHT22;15734;50.904;6.922;2023-06-24T10:12:49;25.80;99.90
28524;DHT22;15734;50.904;6.922;2023-06-24T10:15:15;26.00;99.90
28524;DHT22;15734;50.904;6.922;2023-06-24T10:17:41;26.30;99.90
28524;DHT22;15734;50.904;6.922;2023-06-24T10:20:06;26.50;99.90
28524;DHT22;15734;50.904;6.922;2023-06-24T10:22:32;26.60;99.90
28524;DHT22;15734;50.904;6.922;2023-06-24T10:25:02;26.60;99.90
28524;DHT22;15734;50.904;6.922;2023-06-24T10:27:38;26.50;99.90
28524;DHT22;15734;50.904;6.922;2023-06-24T10:30:04;26.60;99.90
28524;DHT22;15734;50.904;6.922;2023-06-24T10:32:42;26.70;99.90
28524;DHT22;15734;50.904;6.922;2023-06-24T10:37:59;26.50;99.90
28524;DHT22;15734;50.904;6.922;2023-06-24T10:40:43;26.90;99.90
28524;DHT22;15734;50.904;6.922;2023-06-24T10:45:53;27.40;95.20
28524;DHT22;15734;50.904;6.922;2023-06-24T10:48:18;27.20;95.20
28524;DHT22;15734;50.904;6.922;2023-06-24T10:50:48;27.30;97.60
28524;DHT22;15734;50.904;6.922;2023-06-24T10:53:15;27.60;95.80
28524;DHT22;15734;50.904;6.922;2023-06-24T10:55:41;27.90;95.60
28524;DHT22;15734;50.904;6.922;2023-06-24T10:58:09;28.00;93.90
28524;DHT22;15734;50.904;6.922;2023-06-24T11:00:36;28.00;94.60
28524;DHT22;15734;50.904;6.922;2023-06-24T11:03:17;28.20;94.50
28524;DHT22;15734;50.904;6.922;2023-06-24T11:05:48;27.90;91.70
28524;DHT22;15734;50.904;6.922;2023-06-24T11:08:14;27.80;90.60
28524;DHT22;15734;50.904;6.922;2023-06-24T11:10:48;28.00;91.30
28524;DHT22;15734;50.904;6.922;2023-06-24T11:13:14;27.60;91.10
28524;DHT22;15734;50.904;6.922;2023-06-24T11:15:41;27.80;90.70
28524;DHT22;15734;50.904;6.922;2023-06-24T11:18:09;28.30;91.80
28524;DHT22;15734;50.904;6.922;2023-06-24T11:20:36;28.50;92.20
28524;DHT22;15734;50.904;6.922;2023-06-24T11:23:05;28.90;91.70
28524;DHT22;15734;50.904;6.922;2023-06-24T11:25:31;29.00;93.00
28524;DHT22;15734;50.904;6.922;2023-06-24T11:27:57;29.30;92.50
28524;DHT22;15734;50.904;6.922;2023-06-24T11:30:22;28.90;90.70
28524;DHT22;15734;50.904;6.922;2023-06-24T11:32:48;28.70;90.80
28524;DHT22;15734;50.904;6.922;2023-06-24T11:35:15;28.80;94.30
28524;DHT22;15734;50.904;6.922;2023-06-24T11:37:42;28.80;91.40
28524;DHT22;15734;50.904;6.922;2023-06-24T11:40:09;28.80;91.40
28524;DHT22;15734;50.904;6.922;2023-06-24T11:42:39;28.40;90.60
28524;DHT22;15734;50.904;6.922;2023-06-24T11:45:07;28.20;91.40
28524;DHT22;15734;50.904;6.922;2023-06-24T11:47:34;28.50;91.90
28524;DHT22;15734;50.904;6.922;2023-06-24T11:50:00;28.70;91.70
28524;DHT22;15734;50.904;6.922;2023-06-24T11:52:49;29.20;91.80
28524;DHT22;15734;50.904;6.922;2023-06-24T11:55:24;29.20;90.30
28524;DHT22;15734;50.904;6.922;2023-06-24T12:00:34;28.80;92.40
28524;DHT22;15734;50.904;6.922;2023-06-24T12:03:02;28.90;92.30
28524;DHT22;15734;50.904;6.922;2023-06-24T12:05:32;29.20;91.10
28524;DHT22;15734;50.904;6.922;2023-06-24T12:08:15;29.20;91.40
28524;DHT22;15734;50.904;6.922;2023-06-24T12:10:42;29.40;91.50
28524;DHT22;15734;50.904;6.922;2023-06-24T12:13:08;29.60;90.70
28524;DHT22;15734;50.904;6.922;2023-06-24T12:15:34;29.40;90.10
28524;DHT22;15734;50.904;6.922;2023-06-24T12:18:00;29.10;91.30
28524;DHT22;15734;50.904;6.922;2023-06-24T12:20:27;29.30;91.00
28524;DHT22;15734;50.904;6.922;2023-06-24T12:22:53;29.60;89.80
28524;DHT22;15734;50.904;6.922;2023-06-24T12:25:19;28.60;90.50
28524;DHT22;15734;50.904;6.922;2023-06-24T12:27:45;28.80;90.70
28524;DHT22;15734;50.904;6.922;2023-06-24T12:30:12;28.90;91.20
28524;DHT22;15734;50.904;6.922;2023-06-24T12:32:37;29.10;91.10
28524;DHT22;15734;50.904;6.922;2023-06-24T12:35:04;29.50;90.20
28524;DHT22;15734;50.904;6.922;2023-06-24T12:37:30;29.90;87.10
28524;DHT22;15734;50.904;6.922;2023-06-24T12:39:57;29.60;86.80
28524;DHT22;15734;50.904;6.922;2023-06-24T12:42:22;29.90;88.20
28524;DHT22;15734;50.904;6.922;2023-06-24T12:44:48;30.10;87.50
28524;DHT22;15734;50.904;6.922;2023-06-24T12:47:13;30.40;86.40
28524;DHT22;15734;50.904;6.922;2023-06-24T12:49:39;30.60;86.40
28524;DHT22;15734;50.904;6.922;2023-06-24T12:52:04;30.60;85.70
28524;DHT22;15734;50.904;6.922;2023-06-24T12:54:30;30.90;82.90
28524;DHT22;15734;50.904;6.922;2023-06-24T12:56:55;30.70;80.30
28524;DHT22;15734;50.904;6.922;2023-06-24T12:59:22;30.80;85.50
28524;DHT22;15734;50.904;6.922;2023-06-24T13:01:48;31.10;78.60
28524;DHT22;15734;50.904;6.922;2023-06-24T13:04:13;30.80;78.10
28524;DHT22;15734;50.904;6.922;2023-06-24T13:06:39;30.80;79.70
28524;DHT22;15734;50.904;6.922;2023-06-24T13:09:05;30.90;77.80
28524;DHT22;15734;50.904;6.922;2023-06-24T13:11:31;31.20;78.70
28524;DHT22;15734;50.904;6.922;2023-06-24T13:13:56;31.20;74.70
28524;DHT22;15734;50.904;6.922;2023-06-24T13:16:22;31.20;73.70
28524;DHT22;15734;50.904;6.922;2023-06-24T13:18:47;31.20;73.50
28524;DHT22;15734;50.904;6.922;2023-06-24T13:21:13;31.20;75.20
28524;DHT22;15734;50.904;6.922;2023-06-24T13:23:39;31.20;72.80
28524;DHT22;15734;50.904;6.922;2023-06-24T13:26:06;30.00;71.60
28524;DHT22;15734;50.904;6.922;2023-06-24T13:28:31;30.40;76.50
28524;DHT22;15734;50.904;6.922;2023-06-24T13:30:58;30.70;74.10
28524;DHT22;15734;50.904;6.922;2023-06-24T13:33:23;30.60;75.90
28524;DHT22;15734;50.904;6.922;2023-06-24T13:35:50;31.00;75.30
28524;DHT22;15734;50.904;6.922;2023-06-24T13:38:16;31.60;74.70
28524;DHT22;15734;50.904;6.922;2023-06-24T13:40:41;31.90;73.60
28524;DHT22;15734;50.904;6.922;2023-06-24T13:43:07;31.50;71.40
28524;DHT22;15734;50.904;6.922;2023-06-24T13:45:32;31.40;70.10
28524;DHT22;15734;50.904;6.922;2023-06-24T13:47:58;31.30;70.90
28524;DHT22;15734;50.904;6.922;2023-06-24T13:50:23;30.90;71.10
28524;DHT22;15734;50.904;6.922;2023-06-24T13:52:49;31.50;74.40
28524;DHT22;15734;50.904;6.922;2023-06-24T13:55:14;31.70;70.70
28524;DHT22;15734;50.904;6.922;2023-06-24T13:57:40;31.50;73.60
28524;DHT22;15734;50.904;6.922;2023-06-24T14:00:06;31.40;71.70
28524;DHT22;15734;50.904;6.922;2023-06-24T14:02:32;31.60;72.80
28524;DHT22;15734;50.904;6.922;2023-06-24T14:04:57;31.60;71.50
28524;DHT22;15734;50.904;6.922;2023-06-24T14:07:23;31.60;71.30
28524;DHT22;15734;50.904;6.922;2023-06-24T14:09:50;31.50;71.00
28524;DHT22;15734;50.904;6.922;2023-06-24T14:12:15;31.50;72.30
28524;DHT22;15734;50.904;6.922;2023-06-24T14:14:41;31.70;72.40
28524;DHT22;15734;50.904;6.922;2023-06-24T14:17:07;31.70;71.10
28524;DHT22;15734;50.904;6.922;2023-06-24T14:19:37;31.60;75.70
28524;DHT22;15734;50.904;6.922;2023-06-24T14:22:03;31.60;70.10
28524;DHT22;15734;50.904;6.922;2023-06-24T14:24:29;31.10;71.40
28524;DHT22;15734;50.904;6.922;2023-06-24T14:26:55;31.40;70.40
28524;DHT22;15734;50.904;6.922;2023-06-24T14:29:20;31.50;69.50
28524;DHT22;15734;50.904;6.922;2023-06-24T14:31:46;31.40;69.20
28524;DHT22;15734;50.904;6.922;2023-06-24T14:34:12;31.70;67.80
28524;DHT22;15734;50.904;6.922;2023-06-24T14:36:37;31.70;68.70
28524;DHT22;15734;50.904;6.922;2023-06-24T14:39:04;31.50;68.50
28524;DHT22;15734;50.904;6.922;2023-06-24T14:41:29;31.60;67.30
28524;DHT22;15734;50.904;6.922;2023-06-24T14:43:55;31.60;68.10
28524;DHT22;15734;50.904;6.922;2023-06-24T14:46:20;31.80;67.80
28524;DHT22;15734;50.904;6.922;2023-06-24T14:48:46;31.80;66.50
28524;DHT22;15734;50.904;6.922;2023-06-24T14:51:11;31.70;65.10
28524;DHT22;15734;50.904;6.922;2023-06-24T14:53:37;31.70;65.60
28524;DHT22;15734;50.904;6.922;2023-06-24T14:56:02;31.70;69.10
28524;DHT22;15734;50.904;6.922;2023-06-24T14:58:28;32.00;65.70
28524;DHT22;15734;50.904;6.922;2023-06-24T15:00:54;32.20;64.70
28524;DHT22;15734;50.904;6.922;2023-06-24T15:03:19;32.30;64.80
28524;DHT22;15734;50.904;6.922;2023-06-24T15:05:46;32.10;64.20
28524;DHT22;15734;50.904;6.922;2023-06-24T15:08:11;31.80;62.40
28524;DHT22;15734;50.904;6.922;2023-06-24T15:10:37;31.80;63.10
28524;DHT22;15734;50.904;6.922;2023-06-24T15:13:02;32.10;63.60
28524;DHT22;15734;50.904;6.922;2023-06-24T15:15:28;32.10;62.30
28524;DHT22;15734;50.904;6.922;2023-06-24T15:17:53;31.50;67.00
28524;DHT22;15734;50.904;6.922;2023-06-24T15:20:19;31.80;62.10
28524;DHT22;15734;50.904;6.922;2023-06-24T15:22:45;31.40;61.00
28524;DHT22;15734;50.904;6.922;2023-06-24T15:25:10;31.10;61.20
28524;DHT22;15734;50.904;6.922;2023-06-24T15:27:36;31.10;61.80
28524;DHT22;15734;50.904;6.922;2023-06-24T15:30:02;31.40;61.30
28524;DHT22;15734;50.904;6.922;2023-06-24T15:32:27;31.50;60.00
28524;DHT22;15734;50.904;6.922;2023-06-24T15:34:53;31.00;63.20
28524;DHT22;15734;50.904;6.922;2023-06-24T15:37:18;31.50;60.30
28524;DHT22;15734;50.904;6.922;2023-06-24T15:39:44;31.60;60.30
28524;DHT22;15734;50.904;6.922;2023-06-24T15:42:09;31.00;60.60
28524;DHT22;15734;50.904;6.922;2023-06-24T15:44:36;31.50;60.00
28524;DHT22;15734;50.904;6.922;2023-06-24T15:47:04;31.60;58.50